createdAt,value
2017-01-23T00:00:37.050Z,0
2017-01-23T00:01:36.671Z,0
2017-01-23T00:02:36.709Z,0
2017-01-23T00:03:37.522Z,0
2017-01-23T00:04:37.157Z,0
2017-01-23T00:05:36.779Z,0
2017-01-23T00:06:37.606Z,0
2017-01-23T00:07:37.631Z,0
2017-01-23T00:08:38.052Z,0
2017-01-23T00:09:36.873Z,0
2017-01-23T00:10:37.304Z,0
2017-01-23T00:11:36.534Z,0
2017-01-23T00:12:36.962Z,0
2017-01-23T00:13:36.995Z,0
2017-01-23T00:14:37.428Z,0
2017-01-23T00:15:37.041Z,0
2017-01-23T00:16:37.462Z,0
2017-01-23T00:17:37.507Z,0
2017-01-23T00:18:37.898Z,0
2017-01-23T00:19:37.931Z,0
2017-01-23T00:20:37.960Z,0
2017-01-23T00:21:37.593Z,0
2017-01-23T00:22:38.005Z,0
2017-01-23T00:23:38.059Z,0
2017-01-23T00:24:37.667Z,0
2017-01-23T00:25:36.892Z,0
2017-01-23T00:26:37.325Z,0
2017-01-23T00:27:38.138Z,0
2017-01-23T00:28:38.187Z,0
2017-01-23T00:29:38.184Z,0
2017-01-23T00:30:38.231Z,0
2017-01-23T00:31:37.445Z,0
2017-01-23T00:32:37.871Z,0
2017-01-23T00:33:37.890Z,0
2017-01-23T00:34:37.119Z,0
2017-01-23T00:35:37.955Z,0
2017-01-23T00:36:37.972Z,0
2017-01-23T00:37:38.388Z,0
2017-01-23T00:38:37.256Z,0
2017-01-23T00:39:38.039Z,0
2017-01-23T00:40:38.455Z,0
2017-01-23T00:41:37.699Z,0
2017-01-23T00:42:39.189Z,0
2017-01-23T00:43:38.142Z,0
2017-01-23T00:44:37.773Z,0
2017-01-23T00:45:37.398Z,0
2017-01-23T00:46:37.822Z,0
2017-01-23T00:47:37.843Z,0
2017-01-23T00:48:38.261Z,0
2017-01-23T00:49:38.292Z,0
2017-01-23T00:50:38.318Z,0
2017-01-23T00:51:38.743Z,0
2017-01-23T00:52:38.758Z,0
2017-01-23T00:53:39.187Z,0
2017-01-23T00:54:39.199Z,0
2017-01-23T00:55:38.060Z,0
2017-01-23T00:56:38.072Z,0
2017-01-23T00:57:38.101Z,0
2017-01-23T00:58:37.749Z,0
2017-01-23T00:59:38.139Z,0
2017-01-23T01:00:38.958Z,0
2017-01-23T01:01:38.616Z,0
2017-01-23T01:02:39.408Z,0
2017-01-23T01:03:39.036Z,0
2017-01-23T01:04:39.062Z,0
2017-01-23T01:05:38.693Z,0
2017-01-23T01:06:39.122Z,0
2017-01-23T01:07:38.742Z,0
2017-01-23T01:08:38.379Z,0
2017-01-23T01:09:39.180Z,0
2017-01-23T01:10:39.200Z,0
2017-01-23T01:11:38.441Z,0
2017-01-23T01:12:38.473Z,0
2017-01-23T01:13:38.891Z,0
2017-01-23T01:14:38.518Z,0
2017-01-23T01:15:39.347Z,0
2017-01-23T01:16:39.364Z,0
2017-01-23T01:17:38.596Z,0
2017-01-23T01:18:39.017Z,0
2017-01-23T01:19:38.642Z,0
2017-01-23T01:20:38.270Z,0
2017-01-23T01:21:38.696Z,0
2017-01-23T01:22:39.113Z,0
2017-01-23T01:23:39.142Z,0
2017-01-23T01:24:39.592Z,0
2017-01-23T01:25:39.194Z,0
2017-01-23T01:26:39.211Z,0
2017-01-23T01:27:38.851Z,0
2017-01-23T01:28:39.673Z,0
2017-01-23T01:29:38.913Z,0
2017-01-23T01:30:39.322Z,0
2017-01-23T01:31:39.743Z,0
2017-01-23T01:32:38.976Z,0
2017-01-23T01:33:39.392Z,0
2017-01-23T01:34:38.628Z,0
2017-01-23T01:35:39.840Z,0
2017-01-23T01:36:39.859Z,0
2017-01-23T01:37:39.882Z,0
2017-01-23T01:38:40.309Z,0
2017-01-23T01:39:39.537Z,0
2017-01-23T01:40:39.174Z,0
2017-01-23T01:41:38.807Z,0
2017-01-23T01:42:39.611Z,0
2017-01-23T01:43:40.037Z,0
2017-01-23T01:44:38.890Z,0
2017-01-23T01:45:40.116Z,0
2017-01-23T01:46:39.323Z,0
2017-01-23T01:47:40.144Z,0
2017-01-23T01:48:40.561Z,0
2017-01-23T01:49:39.781Z,0
2017-01-23T01:50:39.417Z,0
2017-01-23T01:51:39.462Z,0
2017-01-23T01:52:39.074Z,0
2017-01-23T01:53:39.911Z,0
2017-01-23T01:54:39.916Z,0
2017-01-23T01:55:39.157Z,0
2017-01-23T01:56:39.174Z,0
2017-01-23T01:57:39.989Z,0
2017-01-23T01:58:40.406Z,0
2017-01-23T01:59:39.644Z,0
2017-01-23T02:00:40.091Z,0
2017-01-23T02:01:39.281Z,0
2017-01-23T02:02:39.330Z,0
2017-01-23T02:03:39.341Z,0
2017-01-23T02:04:39.770Z,0
2017-01-23T02:05:40.567Z,0
2017-01-23T02:06:39.816Z,0
2017-01-23T02:07:39.841Z,0
2017-01-23T02:08:40.261Z,0
2017-01-23T02:09:40.706Z,0
2017-01-23T02:10:40.709Z,0
2017-01-23T02:11:40.735Z,0
2017-01-23T02:12:39.957Z,0
2017-01-23T02:13:39.996Z,0
2017-01-23T02:14:40.008Z,0
2017-01-23T02:15:39.630Z,0
2017-01-23T02:16:40.460Z,0
2017-01-23T02:17:40.479Z,0
2017-01-23T02:18:40.504Z,0
2017-01-23T02:19:40.949Z,0
2017-01-23T02:20:41.350Z,0
2017-01-23T02:21:40.578Z,0
2017-01-23T02:22:39.815Z,0
2017-01-23T02:23:40.234Z,0
2017-01-23T02:24:40.264Z,0
2017-01-23T02:25:40.286Z,0
2017-01-23T02:26:40.710Z,0
2017-01-23T02:27:39.948Z,0
2017-01-23T02:28:40.748Z,0
2017-01-23T02:29:41.176Z,0
2017-01-23T02:30:40.804Z,0
2017-01-23T02:31:41.248Z,0
2017-01-23T02:32:41.646Z,0
2017-01-23T02:33:40.890Z,0
2017-01-23T02:34:40.507Z,0
2017-01-23T02:35:40.136Z,0
2017-01-23T02:36:40.953Z,0
2017-01-23T02:37:40.578Z,0
2017-01-23T02:38:40.614Z,0
2017-01-23T02:39:41.055Z,0
2017-01-23T02:40:41.444Z,0
2017-01-23T02:41:41.477Z,0
2017-01-23T02:42:40.705Z,0
2017-01-23T02:43:40.330Z,0
2017-01-23T02:44:40.758Z,0
2017-01-23T02:45:40.775Z,0
2017-01-23T02:46:40.407Z,0
2017-01-23T02:47:40.824Z,0
2017-01-23T02:48:40.453Z,0
2017-01-23T02:49:40.876Z,0
2017-01-23T02:50:41.691Z,0
2017-01-23T02:51:41.324Z,0
2017-01-23T02:52:41.346Z,0
2017-01-23T02:53:41.765Z,0
2017-01-23T02:54:40.999Z,0
2017-01-23T02:55:42.247Z,0
2017-01-23T02:56:41.444Z,0
2017-01-23T02:57:41.072Z,0
2017-01-23T02:58:41.498Z,0
2017-01-23T02:59:41.123Z,0
2017-01-23T03:00:41.935Z,0
2017-01-23T03:01:41.568Z,0
2017-01-23T03:02:41.202Z,0
2017-01-23T03:03:41.218Z,0
2017-01-23T03:04:41.247Z,0
2017-01-23T03:05:40.878Z,0
2017-01-23T03:06:41.300Z,0
2017-01-23T03:07:41.317Z,0
2017-01-23T03:08:42.142Z,0
2017-01-23T03:09:40.971Z,0
2017-01-23T03:10:41.795Z,0
2017-01-23T03:11:42.214Z,0
2017-01-23T03:12:42.660Z,0
2017-01-23T03:13:41.858Z,0
2017-01-23T03:14:41.494Z,0
2017-01-23T03:15:42.307Z,0
2017-01-23T03:16:41.544Z,0
2017-01-23T03:17:41.968Z,0
2017-01-23T03:18:41.196Z,0
2017-01-23T03:19:42.013Z,0
2017-01-23T03:20:42.440Z,0
2017-01-23T03:21:42.064Z,0
2017-01-23T03:22:42.882Z,0
2017-01-23T03:23:41.708Z,0
2017-01-23T03:24:42.535Z,0
2017-01-23T03:25:41.768Z,0
2017-01-23T03:26:41.784Z,0
2017-01-23T03:27:42.206Z,0
2017-01-23T03:28:42.242Z,0
2017-01-23T03:29:41.858Z,0
2017-01-23T03:30:41.884Z,0
2017-01-23T03:31:42.301Z,0
2017-01-23T03:32:41.938Z,0
2017-01-23T03:33:42.362Z,0
2017-01-23T03:34:41.983Z,0
2017-01-23T03:35:42.016Z,0
2017-01-23T03:36:41.639Z,0
2017-01-23T03:37:42.055Z,0
2017-01-23T03:38:42.490Z,0
2017-01-23T03:39:42.109Z,0
2017-01-23T03:40:43.312Z,0
2017-01-23T03:41:42.541Z,0
2017-01-23T03:42:42.971Z,0
2017-01-23T03:43:42.999Z,0
2017-01-23T03:44:42.626Z,0
2017-01-23T03:45:42.253Z,0
2017-01-23T03:46:42.669Z,0
2017-01-23T03:47:41.902Z,0
2017-01-23T03:48:42.727Z,0
2017-01-23T03:49:42.747Z,0
2017-01-23T03:50:42.770Z,0
2017-01-23T03:51:43.597Z,0
2017-01-23T03:52:42.822Z,0
2017-01-23T03:53:43.234Z,0
2017-01-23T03:54:42.479Z,0
2017-01-23T03:55:42.100Z,0
2017-01-23T03:56:42.925Z,0
2017-01-23T03:57:43.334Z,0
2017-01-23T03:58:43.359Z,0
2017-01-23T03:59:43.388Z,0
2017-01-23T04:00:43.016Z,0
2017-01-23T04:01:43.838Z,0
2017-01-23T04:02:43.465Z,0
2017-01-23T04:03:43.499Z,0
2017-01-23T04:04:43.515Z,0
2017-01-23T04:05:42.344Z,0
2017-01-23T04:06:42.365Z,0
2017-01-23T04:07:42.793Z,0
2017-01-23T04:08:43.206Z,0
2017-01-23T04:09:42.847Z,0
2017-01-23T04:10:43.656Z,0
2017-01-23T04:11:44.081Z,0
2017-01-23T04:12:44.106Z,0
2017-01-23T04:13:42.939Z,0
2017-01-23T04:14:44.143Z,0
2017-01-23T04:15:43.020Z,0
2017-01-23T04:16:43.404Z,0
2017-01-23T04:17:43.429Z,0
2017-01-23T04:18:43.467Z,0
2017-01-23T04:19:43.081Z,0
2017-01-23T04:20:42.717Z,0
2017-01-23T04:21:43.920Z,0
2017-01-23T04:22:43.942Z,0
2017-01-23T04:23:43.175Z,0
2017-01-23T04:24:43.203Z,0
2017-01-23T04:25:43.627Z,0
2017-01-23T04:26:43.245Z,0
2017-01-23T04:27:43.277Z,0
2017-01-23T04:28:43.702Z,0
2017-01-23T04:29:43.330Z,0
2017-01-23T04:30:43.749Z,0
2017-01-23T04:31:43.777Z,0
2017-01-23T04:32:44.192Z,0
2017-01-23T04:33:43.442Z,0
2017-01-23T04:34:43.459Z,0
2017-01-23T04:35:43.480Z,0
2017-01-23T04:36:44.300Z,0
2017-01-23T04:37:44.318Z,0
2017-01-23T04:38:43.947Z,0
2017-01-23T04:39:43.183Z,0
2017-01-23T04:40:44.384Z,0
2017-01-23T04:41:44.421Z,0
2017-01-23T04:42:44.068Z,0
2017-01-23T04:43:43.670Z,0
2017-01-23T04:44:44.091Z,0
2017-01-23T04:45:43.727Z,0
2017-01-23T04:46:44.141Z,0
2017-01-23T04:47:43.755Z,0
2017-01-23T04:48:43.794Z,0
2017-01-23T04:49:44.212Z,0
2017-01-23T04:50:44.632Z,0
2017-01-23T04:51:44.663Z,0
2017-01-23T04:52:44.284Z,0
2017-01-23T04:53:44.314Z,0
2017-01-23T04:54:43.947Z,0
2017-01-23T04:55:43.962Z,0
2017-01-23T04:56:43.984Z,0
2017-01-23T04:57:44.409Z,0
2017-01-23T04:58:43.637Z,0
2017-01-23T04:59:44.856Z,0
2017-01-23T05:00:44.487Z,0
2017-01-23T05:01:44.904Z,0
2017-01-23T05:02:44.972Z,0
2017-01-23T05:03:43.760Z,0
2017-01-23T05:04:43.790Z,0
2017-01-23T05:05:44.999Z,0
2017-01-23T05:06:45.027Z,0
2017-01-23T05:07:43.856Z,0
2017-01-23T05:08:44.285Z,0
2017-01-23T05:09:45.089Z,0
2017-01-23T05:10:44.718Z,0
2017-01-23T05:11:43.943Z,0
2017-01-23T05:12:44.783Z,0
2017-01-23T05:13:44.397Z,0
2017-01-23T05:14:44.421Z,0
2017-01-23T05:15:44.846Z,0
2017-01-23T05:16:45.274Z,0
2017-01-23T05:17:45.683Z,0
2017-01-23T05:18:44.520Z,0
2017-01-23T05:19:44.545Z,0
2017-01-23T05:20:44.989Z,0
2017-01-23T05:21:44.198Z,0
2017-01-23T05:22:45.011Z,0
2017-01-23T05:23:44.252Z,0
2017-01-23T05:24:44.265Z,0
2017-01-23T05:25:45.482Z,0
2017-01-23T05:26:45.510Z,0
2017-01-23T05:27:45.135Z,0
2017-01-23T05:28:45.948Z,0
2017-01-23T05:29:45.582Z,0
2017-01-23T05:30:45.997Z,0
2017-01-23T05:31:45.229Z,0
2017-01-23T05:32:45.646Z,0
2017-01-23T05:33:44.515Z,0
2017-01-23T05:34:44.903Z,0
2017-01-23T05:35:45.724Z,0
2017-01-23T05:36:46.169Z,0
2017-01-23T05:37:45.378Z,0
2017-01-23T05:38:45.395Z,0
2017-01-23T05:39:45.421Z,0
2017-01-23T05:40:45.849Z,0
2017-01-23T05:41:45.101Z,0
2017-01-23T05:42:45.135Z,0
2017-01-23T05:43:45.522Z,0
2017-01-23T05:44:45.163Z,0
2017-01-23T05:45:45.176Z,0
2017-01-23T05:46:45.986Z,0
2017-01-23T05:47:45.217Z,0
2017-01-23T05:48:46.038Z,0
2017-01-23T05:49:45.667Z,0
2017-01-23T05:50:46.088Z,0
2017-01-23T05:51:46.116Z,0
2017-01-23T05:52:44.949Z,0
2017-01-23T05:53:45.370Z,0
2017-01-23T05:54:45.403Z,0
2017-01-23T05:55:45.408Z,0
2017-01-23T05:56:45.044Z,0
2017-01-23T05:57:45.069Z,0
2017-01-23T05:58:45.490Z,0
2017-01-23T05:59:45.513Z,0
2017-01-23T06:00:46.315Z,0
2017-01-23T06:01:45.960Z,0
2017-01-23T06:02:45.988Z,0
2017-01-23T06:03:45.613Z,0
2017-01-23T06:04:46.818Z,0
2017-01-23T06:05:46.059Z,0
2017-01-23T06:06:45.331Z,0
2017-01-23T06:07:46.493Z,0
2017-01-23T06:08:45.730Z,0
2017-01-23T06:09:45.754Z,0
2017-01-23T06:10:46.177Z,0
2017-01-23T06:11:46.615Z,0
2017-01-23T06:12:45.833Z,0
2017-01-23T06:13:46.244Z,0
2017-01-23T06:14:45.878Z,0
2017-01-23T06:15:46.302Z,0
2017-01-23T06:16:45.933Z,0
2017-01-23T06:17:45.948Z,0
2017-01-23T06:18:46.000Z,0
2017-01-23T06:19:46.791Z,0
2017-01-23T06:20:46.447Z,0
2017-01-23T06:21:46.835Z,0
2017-01-23T06:22:46.867Z,0
2017-01-23T06:23:46.485Z,0
2017-01-23T06:24:47.314Z,0
2017-01-23T06:25:46.933Z,0
2017-01-23T06:26:45.771Z,0
2017-01-23T06:27:46.187Z,0
2017-01-23T06:28:46.656Z,0
2017-01-23T06:29:46.641Z,0
2017-01-23T06:30:47.079Z,0
2017-01-23T06:31:46.294Z,0
2017-01-23T06:32:47.110Z,0
2017-01-23T06:33:46.732Z,0
2017-01-23T06:34:47.572Z,0
2017-01-23T06:35:47.573Z,0
2017-01-23T06:36:47.606Z,0
2017-01-23T06:37:46.042Z,0
2017-01-23T06:38:47.271Z,0
2017-01-23T06:39:47.288Z,0
2017-01-23T06:40:46.916Z,0
2017-01-23T06:41:46.933Z,0
2017-01-23T06:42:46.554Z,0
2017-01-23T06:43:46.986Z,0
2017-01-23T06:44:46.214Z,0
2017-01-23T06:45:47.441Z,0
2017-01-23T06:46:47.453Z,0
2017-01-23T06:47:47.874Z,0
2017-01-23T06:48:47.950Z,0
2017-01-23T06:49:46.344Z,0
2017-01-23T06:50:46.761Z,0
2017-01-23T06:51:47.177Z,0
2017-01-23T06:52:47.210Z,0
2017-01-23T06:53:47.226Z,0
2017-01-23T06:54:47.248Z,0
2017-01-23T06:55:47.275Z,0
2017-01-23T06:56:46.913Z,0
2017-01-23T06:57:47.729Z,0
2017-01-23T06:58:47.747Z,0
2017-01-23T06:59:47.771Z,0
2017-01-23T07:00:46.996Z,0
2017-01-23T07:01:47.417Z,0
2017-01-23T07:02:47.840Z,0
2017-01-23T07:03:47.465Z,0
2017-01-23T07:04:47.498Z,0
2017-01-23T07:05:47.528Z,0
2017-01-23T07:06:47.160Z,0
2017-01-23T07:07:46.780Z,0
2017-01-23T07:08:47.586Z,0
2017-01-23T07:09:47.628Z,0
2017-01-23T07:10:48.443Z,0
2017-01-23T07:11:47.671Z,0
2017-01-23T07:12:48.101Z,0
2017-01-23T07:13:47.721Z,0
2017-01-23T07:14:46.950Z,0
2017-01-23T07:15:47.775Z,0
2017-01-23T07:16:47.011Z,0
2017-01-23T07:17:47.820Z,0
2017-01-23T07:18:48.632Z,0
2017-01-23T07:19:47.066Z,0
2017-01-23T07:20:47.895Z,0
2017-01-23T07:21:47.919Z,0
2017-01-23T07:22:48.757Z,0
2017-01-23T07:23:48.360Z,0
2017-01-23T07:24:47.994Z,0
2017-01-23T07:25:47.622Z,0
2017-01-23T07:26:48.439Z,0
2017-01-23T07:27:47.668Z,0
2017-01-23T07:28:48.490Z,0
2017-01-23T07:29:47.717Z,0
2017-01-23T07:30:48.533Z,0
2017-01-23T07:31:48.962Z,0
2017-01-23T07:32:47.426Z,0
2017-01-23T07:33:47.428Z,0
2017-01-23T07:34:48.641Z,0
2017-01-23T07:35:48.266Z,0
2017-01-23T07:36:47.894Z,0
2017-01-23T07:37:47.517Z,0
2017-01-23T07:38:49.136Z,0
2017-01-23T07:39:48.368Z,0
2017-01-23T07:40:48.397Z,0
2017-01-23T07:41:48.019Z,0
2017-01-23T07:42:48.439Z,0
2017-01-23T07:43:48.859Z,0
2017-01-23T07:44:48.885Z,0
2017-01-23T07:45:49.309Z,0
2017-01-23T07:46:48.539Z,0
2017-01-23T07:47:48.598Z,0
2017-01-23T07:48:48.586Z,0
2017-01-23T07:49:49.012Z,0
2017-01-23T07:50:49.036Z,0
2017-01-23T07:51:49.054Z,0
2017-01-23T07:52:48.702Z,0
2017-01-23T07:53:48.315Z,5
2017-01-23T07:54:48.740Z,5
2017-01-23T07:55:49.165Z,5
2017-01-23T07:56:49.185Z,5
2017-01-23T07:57:48.409Z,5
2017-01-23T07:58:48.435Z,5
2017-01-23T07:59:48.471Z,5
2017-01-23T08:00:49.279Z,5
2017-01-23T08:01:48.113Z,5
2017-01-23T08:02:48.935Z,5
2017-01-23T08:03:48.950Z,5
2017-01-23T08:04:48.979Z,5
2017-01-23T08:05:49.391Z,5
2017-01-23T08:06:49.821Z,5
2017-01-23T08:07:49.870Z,5
2017-01-23T08:08:49.073Z,5
2017-01-23T08:09:48.711Z,5
2017-01-23T08:10:49.127Z,5
2017-01-23T08:11:49.548Z,5
2017-01-23T08:12:49.577Z,5
2017-01-23T08:13:49.193Z,5
2017-01-23T08:14:48.826Z,5
2017-01-23T08:15:48.873Z,5
2017-01-23T08:16:49.672Z,5
2017-01-23T08:17:49.297Z,5
2017-01-23T08:18:49.724Z,5
2017-01-23T08:19:48.946Z,5
2017-01-23T08:20:49.374Z,5
2017-01-23T08:21:48.995Z,10
2017-01-23T08:22:49.022Z,10
2017-01-23T08:23:49.053Z,10
2017-01-23T08:24:49.074Z,10
2017-01-23T08:25:49.489Z,15
2017-01-23T08:26:49.124Z,15
2017-01-23T08:27:49.152Z,20
2017-01-23T08:28:49.969Z,25
2017-01-23T08:29:49.991Z,25
2017-01-23T08:30:50.022Z,25
2017-01-23T08:31:49.638Z,25
2017-01-23T08:32:49.674Z,25
2017-01-23T08:33:50.089Z,25
2017-01-23T08:34:49.717Z,25
2017-01-23T08:35:49.342Z,25
2017-01-23T08:36:50.166Z,25
2017-01-23T08:37:50.575Z,25
2017-01-23T08:38:50.608Z,25
2017-01-23T08:39:49.440Z,25
2017-01-23T08:40:49.865Z,25
2017-01-23T08:41:49.486Z,25
2017-01-23T08:42:49.523Z,25
2017-01-23T08:43:49.539Z,25
2017-01-23T08:44:49.588Z,25
2017-01-23T08:45:49.989Z,25
2017-01-23T08:46:50.797Z,25
2017-01-23T08:47:50.456Z,25
2017-01-23T08:48:50.058Z,25
2017-01-23T08:49:50.084Z,25
2017-01-23T08:50:50.144Z,25
2017-01-23T08:51:49.732Z,25
2017-01-23T08:52:50.156Z,25
2017-01-23T08:53:50.573Z,25
2017-01-23T08:54:50.210Z,30
2017-01-23T08:55:50.219Z,30
2017-01-23T08:56:49.856Z,30
2017-01-23T08:57:50.277Z,30
2017-01-23T08:58:50.705Z,30
2017-01-23T08:59:49.938Z,30
2017-01-23T09:00:49.562Z,30
2017-01-23T09:01:50.816Z,30
2017-01-23T09:02:50.000Z,30
2017-01-23T09:03:50.028Z,30
2017-01-23T09:04:50.845Z,30
2017-01-23T09:05:50.485Z,30
2017-01-23T09:06:50.895Z,25
2017-01-23T09:07:50.527Z,25
2017-01-23T09:08:50.555Z,25
2017-01-23T09:09:50.576Z,25
2017-01-23T09:10:50.605Z,25
2017-01-23T09:11:49.838Z,25
2017-01-23T09:12:49.855Z,25
2017-01-23T09:13:50.276Z,25
2017-01-23T09:14:51.085Z,25
2017-01-23T09:15:50.731Z,25
2017-01-23T09:16:50.751Z,25
2017-01-23T09:17:50.776Z,25
2017-01-23T09:18:50.800Z,25
2017-01-23T09:19:50.433Z,25
2017-01-23T09:20:51.641Z,25
2017-01-23T09:21:50.109Z,25
2017-01-23T09:22:50.903Z,25
2017-01-23T09:23:51.324Z,25
2017-01-23T09:24:50.949Z,25
2017-01-23T09:25:50.578Z,25
2017-01-23T09:26:51.394Z,30
2017-01-23T09:27:51.814Z,30
2017-01-23T09:28:51.444Z,30
2017-01-23T09:29:51.077Z,30
2017-01-23T09:30:51.096Z,30
2017-01-23T09:31:50.726Z,30
2017-01-23T09:32:51.147Z,30
2017-01-23T09:33:50.775Z,30
2017-01-23T09:34:51.618Z,30
2017-01-23T09:35:51.233Z,30
2017-01-23T09:36:51.644Z,30
2017-01-23T09:37:51.671Z,30
2017-01-23T09:38:51.695Z,30
2017-01-23T09:39:51.328Z,30
2017-01-23T09:40:50.949Z,30
2017-01-23T09:41:50.574Z,30
2017-01-23T09:42:50.598Z,30
2017-01-23T09:43:51.447Z,30
2017-01-23T09:44:51.445Z,30
2017-01-23T09:45:51.101Z,30
2017-01-23T09:46:52.294Z,30
2017-01-23T09:47:51.505Z,30
2017-01-23T09:48:52.371Z,30
2017-01-23T09:49:52.361Z,30
2017-01-23T09:50:51.592Z,30
2017-01-23T09:51:50.838Z,30
2017-01-23T09:52:51.249Z,30
2017-01-23T09:53:50.862Z,30
2017-01-23T09:54:51.692Z,30
2017-01-23T09:55:51.316Z,30
2017-01-23T09:56:52.133Z,30
2017-01-23T09:57:52.557Z,30
2017-01-23T09:58:52.212Z,30
2017-01-23T09:59:51.023Z,30
2017-01-23T10:00:51.834Z,30
2017-01-23T10:01:51.864Z,30
2017-01-23T10:02:51.102Z,30
2017-01-23T10:03:52.321Z,30
2017-01-23T10:04:51.532Z,30
2017-01-23T10:05:51.564Z,30
2017-01-23T10:06:52.380Z,30
2017-01-23T10:07:52.010Z,30
2017-01-23T10:08:52.832Z,30
2017-01-23T10:09:52.055Z,30
2017-01-23T10:10:52.091Z,30
2017-01-23T10:11:51.728Z,25
2017-01-23T10:12:52.932Z,25
2017-01-23T10:13:51.773Z,25
2017-01-23T10:14:51.790Z,25
2017-01-23T10:15:51.818Z,25
2017-01-23T10:16:52.245Z,25
2017-01-23T10:17:53.052Z,25
2017-01-23T10:18:51.892Z,30
2017-01-23T10:19:51.906Z,30
2017-01-23T10:20:51.946Z,30
2017-01-23T10:21:51.967Z,30
2017-01-23T10:22:51.992Z,30
2017-01-23T10:23:52.000Z,30
2017-01-23T10:24:52.441Z,30
2017-01-23T10:25:52.061Z,30
2017-01-23T10:26:52.491Z,30
2017-01-23T10:27:52.917Z,30
2017-01-23T10:28:53.333Z,30
2017-01-23T10:29:52.560Z,30
2017-01-23T10:30:52.186Z,30
2017-01-23T10:31:52.623Z,30
2017-01-23T10:32:51.847Z,30
2017-01-23T10:33:53.056Z,30
2017-01-23T10:34:52.693Z,30
2017-01-23T10:35:52.318Z,30
2017-01-23T10:36:52.743Z,30
2017-01-23T10:37:53.151Z,30
2017-01-23T10:38:52.791Z,30
2017-01-23T10:39:52.025Z,30
2017-01-23T10:40:52.481Z,30
2017-01-23T10:41:52.890Z,30
2017-01-23T10:42:52.883Z,30
2017-01-23T10:43:52.524Z,30
2017-01-23T10:44:52.935Z,30
2017-01-23T10:45:53.756Z,35
2017-01-23T10:46:53.790Z,35
2017-01-23T10:47:53.414Z,30
2017-01-23T10:48:53.835Z,30
2017-01-23T10:49:52.675Z,30
2017-01-23T10:50:53.489Z,25
2017-01-23T10:51:52.729Z,25
2017-01-23T10:52:53.142Z,30
2017-01-23T10:53:52.775Z,30
2017-01-23T10:54:52.403Z,30
2017-01-23T10:55:53.613Z,30
2017-01-23T10:56:53.246Z,30
2017-01-23T10:57:54.058Z,30
2017-01-23T10:58:54.091Z,30
2017-01-23T10:59:53.715Z,30
2017-01-23T11:00:53.780Z,30
2017-01-23T11:01:52.969Z,30
2017-01-23T11:02:53.790Z,30
2017-01-23T11:03:53.403Z,30
2017-01-23T11:04:53.847Z,30
2017-01-23T11:05:53.880Z,25
2017-01-23T11:06:53.505Z,25
2017-01-23T11:07:53.909Z,25
2017-01-23T11:08:53.551Z,30
2017-01-23T11:09:53.963Z,30
2017-01-23T11:10:52.832Z,30
2017-01-23T11:11:53.232Z,35
2017-01-23T11:12:53.254Z,35
2017-01-23T11:13:53.278Z,35
2017-01-23T11:14:53.698Z,35
2017-01-23T11:15:52.958Z,30
2017-01-23T11:16:54.145Z,35
2017-01-23T11:17:54.169Z,35
2017-01-23T11:18:53.794Z,40
2017-01-23T11:19:54.257Z,40
2017-01-23T11:20:54.247Z,45
2017-01-23T11:21:53.881Z,45
2017-01-23T11:22:53.108Z,45
2017-01-23T11:23:53.520Z,50
2017-01-23T11:24:53.550Z,50
2017-01-23T11:25:53.575Z,50
2017-01-23T11:26:54.395Z,50
2017-01-23T11:27:54.424Z,45
2017-01-23T11:28:54.053Z,50
2017-01-23T11:29:53.284Z,50
2017-01-23T11:30:54.498Z,50
2017-01-23T11:31:53.727Z,50
2017-01-23T11:32:53.756Z,50
2017-01-23T11:33:54.600Z,50
2017-01-23T11:34:54.204Z,50
2017-01-23T11:35:55.027Z,55
2017-01-23T11:36:54.653Z,55
2017-01-23T11:37:54.681Z,55
2017-01-23T11:38:53.911Z,55
2017-01-23T11:39:54.728Z,55
2017-01-23T11:40:53.585Z,55
2017-01-23T11:41:54.382Z,55
2017-01-23T11:42:54.407Z,55
2017-01-23T11:43:54.460Z,55
2017-01-23T11:44:54.852Z,55
2017-01-23T11:45:54.886Z,55
2017-01-23T11:46:54.904Z,55
2017-01-23T11:47:54.923Z,55
2017-01-23T11:48:54.560Z,55
2017-01-23T11:49:55.379Z,55
2017-01-23T11:50:54.628Z,55
2017-01-23T11:51:54.229Z,55
2017-01-23T11:52:54.266Z,55
2017-01-23T11:53:54.687Z,50
2017-01-23T11:54:54.716Z,50
2017-01-23T11:55:54.340Z,50
2017-01-23T11:56:54.789Z,50
2017-01-23T11:57:55.186Z,50
2017-01-23T11:58:55.211Z,45
2017-01-23T11:59:54.844Z,45
2017-01-23T12:00:54.877Z,45
2017-01-23T12:01:54.504Z,45
2017-01-23T12:02:54.914Z,45
2017-01-23T12:03:55.350Z,40
2017-01-23T12:04:55.367Z,40
2017-01-23T12:05:55.000Z,40
2017-01-23T12:06:55.440Z,40
2017-01-23T12:07:54.657Z,40
2017-01-23T12:08:55.470Z,40
2017-01-23T12:09:55.111Z,40
2017-01-23T12:10:54.744Z,40
2017-01-23T12:11:54.757Z,35
2017-01-23T12:12:54.777Z,35
2017-01-23T12:13:55.201Z,35
2017-01-23T12:14:55.223Z,35
2017-01-23T12:15:56.048Z,35
2017-01-23T12:16:55.288Z,35
2017-01-23T12:17:54.929Z,35
2017-01-23T12:18:55.345Z,35
2017-01-23T12:19:54.970Z,35
2017-01-23T12:20:54.991Z,35
2017-01-23T12:21:55.021Z,35
2017-01-23T12:22:54.645Z,35
2017-01-23T12:23:56.265Z,35
2017-01-23T12:24:55.914Z,35
2017-01-23T12:25:55.519Z,35
2017-01-23T12:26:55.956Z,35
2017-01-23T12:27:55.966Z,30
2017-01-23T12:28:55.985Z,30
2017-01-23T12:29:56.022Z,30
2017-01-23T12:30:55.237Z,30
2017-01-23T12:31:55.288Z,30
2017-01-23T12:32:55.300Z,30
2017-01-23T12:33:54.926Z,30
2017-01-23T12:34:55.357Z,30
2017-01-23T12:35:55.774Z,30
2017-01-23T12:36:55.796Z,30
2017-01-23T12:37:56.612Z,25
2017-01-23T12:38:56.650Z,25
2017-01-23T12:39:55.477Z,25
2017-01-23T12:40:55.906Z,25
2017-01-23T12:41:55.935Z,25
2017-01-23T12:42:55.560Z,25
2017-01-23T12:43:55.580Z,25
2017-01-23T12:44:56.429Z,25
2017-01-23T12:45:56.433Z,25
2017-01-23T12:46:56.458Z,25
2017-01-23T12:47:56.483Z,25
2017-01-23T12:48:56.896Z,25
2017-01-23T12:49:56.536Z,20
2017-01-23T12:50:56.957Z,20
2017-01-23T12:51:56.177Z,20
2017-01-23T12:52:57.032Z,20
2017-01-23T12:53:56.639Z,20
2017-01-23T12:54:56.268Z,20
2017-01-23T12:55:55.893Z,20
2017-01-23T12:56:57.110Z,20
2017-01-23T12:57:56.746Z,20
2017-01-23T12:58:55.588Z,20
2017-01-23T12:59:55.588Z,20
2017-01-23T13:00:56.033Z,20
2017-01-23T13:01:56.050Z,20
2017-01-23T13:02:56.062Z,20
2017-01-23T13:03:56.889Z,20
2017-01-23T13:04:56.119Z,20
2017-01-23T13:05:56.941Z,20
2017-01-23T13:06:56.977Z,20
2017-01-23T13:07:57.395Z,20
2017-01-23T13:08:56.230Z,20
2017-01-23T13:09:56.651Z,20
2017-01-23T13:10:56.679Z,20
2017-01-23T13:11:56.312Z,20
2017-01-23T13:12:57.121Z,15
2017-01-23T13:13:56.754Z,15
2017-01-23T13:14:57.182Z,15
2017-01-23T13:15:56.812Z,15
2017-01-23T13:16:57.628Z,15
2017-01-23T13:17:57.649Z,15
2017-01-23T13:18:56.485Z,15
2017-01-23T13:19:56.114Z,15
2017-01-23T13:20:56.528Z,15
2017-01-23T13:21:56.164Z,15
2017-01-23T13:22:56.594Z,15
2017-01-23T13:23:57.005Z,15
2017-01-23T13:24:57.431Z,15
2017-01-23T13:25:57.059Z,15
2017-01-23T13:26:57.104Z,15
2017-01-23T13:27:57.512Z,15
2017-01-23T13:28:57.537Z,15
2017-01-23T13:29:57.170Z,15
2017-01-23T13:30:56.794Z,15
2017-01-23T13:31:56.823Z,15
2017-01-23T13:32:57.240Z,15
2017-01-23T13:33:57.269Z,15
2017-01-23T13:34:56.897Z,15
2017-01-23T13:35:56.915Z,15
2017-01-23T13:36:57.770Z,15
2017-01-23T13:37:56.971Z,15
2017-01-23T13:38:57.392Z,15
2017-01-23T13:39:57.441Z,15
2017-01-23T13:40:57.477Z,15
2017-01-23T13:41:57.478Z,15
2017-01-23T13:42:57.494Z,15
2017-01-23T13:43:57.523Z,15
2017-01-23T13:44:58.336Z,15
2017-01-23T13:45:57.968Z,15
2017-01-23T13:46:57.989Z,15
2017-01-23T13:47:56.827Z,15
2017-01-23T13:48:58.042Z,15
2017-01-23T13:49:57.671Z,15
2017-01-23T13:50:57.699Z,15
2017-01-23T13:51:57.708Z,15
2017-01-23T13:52:58.549Z,15
2017-01-23T13:53:58.169Z,15
2017-01-23T13:54:58.198Z,15
2017-01-23T13:55:58.627Z,15
2017-01-23T13:56:58.243Z,15
2017-01-23T13:57:58.267Z,15
2017-01-23T13:58:57.919Z,15
2017-01-23T13:59:57.533Z,15
2017-01-23T14:00:58.349Z,15
2017-01-23T14:01:58.367Z,15
2017-01-23T14:02:58.794Z,15
2017-01-23T14:03:58.035Z,15
2017-01-23T14:04:58.451Z,10
2017-01-23T14:05:58.877Z,10
2017-01-23T14:06:58.497Z,10
2017-01-23T14:07:58.137Z,10
2017-01-23T14:08:58.547Z,10
2017-01-23T14:09:58.578Z,10
2017-01-23T14:10:58.203Z,10
2017-01-23T14:11:58.622Z,10
2017-01-23T14:12:58.261Z,10
2017-01-23T14:13:58.673Z,10
2017-01-23T14:14:58.698Z,10
2017-01-23T14:15:58.734Z,10
2017-01-23T14:16:58.358Z,10
2017-01-23T14:17:58.375Z,10
2017-01-23T14:18:59.199Z,10
2017-01-23T14:19:58.428Z,10
2017-01-23T14:20:58.064Z,10
2017-01-23T14:21:58.885Z,10
2017-01-23T14:22:59.301Z,10
2017-01-23T14:23:58.926Z,10
2017-01-23T14:24:58.951Z,10
2017-01-23T14:25:58.611Z,10
2017-01-23T14:26:58.215Z,10
2017-01-23T14:27:58.639Z,10
2017-01-23T14:28:58.264Z,10
2017-01-23T14:29:59.077Z,10
2017-01-23T14:30:58.717Z,10
2017-01-23T14:31:58.735Z,10
2017-01-23T14:32:59.147Z,10
2017-01-23T14:33:59.583Z,10